sensor_id;sensor_type;location;lat;lon;timestamp;P1;durP1;ratioP1;P2;durP2;ratioP2
3589;SDS011;1809;48.470;9.226;2023-04-24T00:01:08;1.80;;;0.70;;
3589;SDS011;1809;48.470;9.226;2023-04-24T00:03:33;0.83;;;0.70;;
3589;SDS011;1809;48.470;9.226;2023-04-24T00:05:59;2.07;;;0.80;;
3589;SDS011;1809;48.470;9.226;2023-04-24T00:08:25;0.70;;;0.57;;
3589;SDS011;1809;48.470;9.226;2023-04-24T00:10:51;0.80;;;0.60;;
3589;SDS011;1809;48.470;9.226;2023-04-24T00:13:17;0.87;;;0.60;;
3589;SDS011;1809;48.470;9.226;2023-04-24T00:15:43;2.73;;;0.60;;
3589;SDS011;1809;48.470;9.226;2023-04-24T00:18:08;1.53;;;0.70;;
3589;SDS011;1809;48.470;9.226;2023-04-24T00:20:34;1.67;;;0.70;;
3589;SDS011;1809;48.470;9.226;2023-04-24T00:23:00;0.50;;;0.50;;
3589;SDS011;1809;48.470;9.226;2023-04-24T00:25:26;0.70;;;0.70;;
3589;SDS011;1809;48.470;9.226;2023-04-24T00:27:51;0.50;;;0.50;;
3589;SDS011;1809;48.470;9.226;2023-04-24T00:30:16;1.67;;;0.60;;
3589;SDS011;1809;48.470;9.226;2023-04-24T00:32:42;2.60;;;0.60;;
3589;SDS011;1809;48.470;9.226;2023-04-24T00:35:07;0.70;;;0.70;;
3589;SDS011;1809;48.470;9.226;2023-04-24T00:37:32;1.93;;;0.60;;
3589;SDS011;1809;48.470;9.226;2023-04-24T00:39:58;3.60;;;0.70;;
3589;SDS011;1809;48.470;9.226;2023-04-24T00:42:23;1.57;;;0.60;;
3589;SDS011;1809;48.470;9.226;2023-04-24T00:44:49;1.57;;;0.80;;
3589;SDS011;1809;48.470;9.226;2023-04-24T00:47:15;2.60;;;0.70;;
3589;SDS011;1809;48.470;9.226;2023-04-24T00:49:41;0.60;;;0.60;;
3589;SDS011;1809;48.470;9.226;2023-04-24T00:52:06;0.60;;;0.60;;
3589;SDS011;1809;48.470;9.226;2023-04-24T00:54:33;1.10;;;0.60;;
3589;SDS011;1809;48.470;9.226;2023-04-24T00:57:00;2.40;;;1.03;;
3589;SDS011;1809;48.470;9.226;2023-04-24T00:59:27;2.10;;;0.60;;
3589;SDS011;1809;48.470;9.226;2023-04-24T01:01:52;1.87;;;0.67;;
3589;SDS011;1809;48.470;9.226;2023-04-24T01:04:18;0.90;;;0.60;;
3589;SDS011;1809;48.470;9.226;2023-04-24T01:06:44;2.03;;;0.80;;
3589;SDS011;1809;48.470;9.226;2023-04-24T01:09:10;0.70;;;0.70;;
3589;SDS011;1809;48.470;9.226;2023-04-24T01:11:37;0.67;;;0.67;;
3589;SDS011;1809;48.470;9.226;2023-04-24T01:14:03;2.70;;;0.60;;
3589;SDS011;1809;48.470;9.226;2023-04-24T01:16:28;0.70;;;0.60;;
3589;SDS011;1809;48.470;9.226;2023-04-24T01:18:54;1.73;;;0.60;;
3589;SDS011;1809;48.470;9.226;2023-04-24T01:21:19;3.80;;;0.80;;
3589;SDS011;1809;48.470;9.226;2023-04-24T01:23:46;0.60;;;0.60;;
3589;SDS011;1809;48.470;9.226;2023-04-24T01:26:12;1.80;;;0.80;;
3589;SDS011;1809;48.470;9.226;2023-04-24T01:28:39;0.80;;;0.80;;
3589;SDS011;1809;48.470;9.226;2023-04-24T01:31:04;0.70;;;0.70;;
3589;SDS011;1809;48.470;9.226;2023-04-24T01:33:30;0.80;;;0.80;;
3589;SDS011;1809;48.470;9.226;2023-04-24T01:35:56;2.30;;;0.80;;
3589;SDS011;1809;48.470;9.226;2023-04-24T01:38:22;1.30;;;0.90;;
3589;SDS011;1809;48.470;9.226;2023-04-24T01:40:47;2.07;;;0.67;;
3589;SDS011;1809;48.470;9.226;2023-04-24T01:43:14;0.90;;;0.60;;
3589;SDS011;1809;48.470;9.226;2023-04-24T01:45:40;1.20;;;0.70;;
3589;SDS011;1809;48.470;9.226;2023-04-24T01:48:05;5.00;;;0.70;;
3589;SDS011;1809;48.470;9.226;2023-04-24T01:50:31;1.43;;;0.60;;
3589;SDS011;1809;48.470;9.226;2023-04-24T01:52:56;0.90;;;0.60;;
3589;SDS011;1809;48.470;9.226;2023-04-24T01:55:22;4.57;;;0.80;;
3589;SDS011;1809;48.470;9.226;2023-04-24T01:57:47;1.17;;;0.60;;
3589;SDS011;1809;48.470;9.226;2023-04-24T02:00:14;1.00;;;0.97;;
3589;SDS011;1809;48.470;9.226;2023-04-24T02:02:39;0.70;;;0.70;;
3589;SDS011;1809;48.470;9.226;2023-04-24T02:05:06;0.97;;;0.80;;
3589;SDS011;1809;48.470;9.226;2023-04-24T02:07:32;1.00;;;1.00;;
3589;SDS011;1809;48.470;9.226;2023-04-24T02:09:57;0.80;;;0.80;;
3589;SDS011;1809;48.470;9.226;2023-04-24T02:12:23;0.80;;;0.80;;
3589;SDS011;1809;48.470;9.226;2023-04-24T02:14:48;0.77;;;0.77;;
3589;SDS011;1809;48.470;9.226;2023-04-24T02:17:13;0.70;;;0.70;;
3589;SDS011;1809;48.470;9.226;2023-04-24T02:19:40;1.53;;;0.97;;
3589;SDS011;1809;48.470;9.226;2023-04-24T02:22:06;2.10;;;0.80;;
3589;SDS011;1809;48.470;9.226;2023-04-24T02:24:31;5.77;;;0.90;;
3589;SDS011;1809;48.470;9.226;2023-04-24T02:26:56;1.00;;;0.80;;
3589;SDS011;1809;48.470;9.226;2023-04-24T02:29:22;1.53;;;0.70;;
3589;SDS011;1809;48.470;9.226;2023-04-24T02:31:48;3.60;;;0.97;;
3589;SDS011;1809;48.470;9.226;2023-04-24T02:34:13;0.60;;;0.60;;
3589;SDS011;1809;48.470;9.226;2023-04-24T02:36:39;2.90;;;0.93;;
3589;SDS011;1809;48.470;9.226;2023-04-24T02:39:04;1.73;;;0.90;;
3589;SDS011;1809;48.470;9.226;2023-04-24T02:41:30;6.30;;;1.17;;
3589;SDS011;1809;48.470;9.226;2023-04-24T02:43:57;2.83;;;0.87;;
3589;SDS011;1809;48.470;9.226;2023-04-24T02:46:23;1.03;;;0.70;;
3589;SDS011;1809;48.470;9.226;2023-04-24T02:48:49;2.40;;;1.00;;
3589;SDS011;1809;48.470;9.226;2023-04-24T02:51:14;0.83;;;0.83;;
3589;SDS011;1809;48.470;9.226;2023-04-24T02:53:39;1.50;;;1.20;;
3589;SDS011;1809;48.470;9.226;2023-04-24T02:56:05;5.07;;;0.90;;
3589;SDS011;1809;48.470;9.226;2023-04-24T02:58:30;5.60;;;1.50;;
3589;SDS011;1809;48.470;9.226;2023-04-24T03:00:55;0.80;;;0.80;;
3589;SDS011;1809;48.470;9.226;2023-04-24T03:03:21;0.70;;;0.70;;
3589;SDS011;1809;48.470;9.226;2023-04-24T03:05:47;2.63;;;1.03;;
3589;SDS011;1809;48.470;9.226;2023-04-24T03:08:12;1.23;;;1.00;;
3589;SDS011;1809;48.470;9.226;2023-04-24T03:10:37;1.40;;;1.30;;
3589;SDS011;1809;48.470;9.226;2023-04-24T03:13:03;1.27;;;0.90;;
3589;SDS011;1809;48.470;9.226;2023-04-24T03:15:28;1.23;;;0.80;;
3589;SDS011;1809;48.470;9.226;2023-04-24T03:17:54;1.97;;;0.90;;
3589;SDS011;1809;48.470;9.226;2023-04-24T03:20:20;2.80;;;1.07;;
3589;SDS011;1809;48.470;9.226;2023-04-24T03:22:45;1.70;;;0.90;;
3589;SDS011;1809;48.470;9.226;2023-04-24T03:25:10;0.80;;;0.80;;
3589;SDS011;1809;48.470;9.226;2023-04-24T03:27:36;1.47;;;0.77;;
3589;SDS011;1809;48.470;9.226;2023-04-24T03:30:02;3.50;;;0.77;;
3589;SDS011;1809;48.470;9.226;2023-04-24T03:32:28;1.37;;;0.90;;
3589;SDS011;1809;48.470;9.226;2023-04-24T03:34:53;2.07;;;1.20;;
3589;SDS011;1809;48.470;9.226;2023-04-24T03:37:18;0.73;;;0.70;;
3589;SDS011;1809;48.470;9.226;2023-04-24T03:39:44;2.50;;;1.03;;
3589;SDS011;1809;48.470;9.226;2023-04-24T03:42:09;1.20;;;0.70;;
3589;SDS011;1809;48.470;9.226;2023-04-24T03:44:35;1.77;;;0.73;;
3589;SDS011;1809;48.470;9.226;2023-04-24T03:47:00;0.77;;;0.60;;
3589;SDS011;1809;48.470;9.226;2023-04-24T03:49:26;1.10;;;0.60;;
3589;SDS011;1809;48.470;9.226;2023-04-24T03:51:51;1.87;;;1.20;;
3589;SDS011;1809;48.470;9.226;2023-04-24T03:54:17;3.63;;;1.43;;
3589;SDS011;1809;48.470;9.226;2023-04-24T03:56:43;1.13;;;1.07;;
3589;SDS011;1809;48.470;9.226;2023-04-24T03:59:09;1.87;;;0.90;;
3589;SDS011;1809;48.470;9.226;2023-04-24T04:01:34;2.07;;;1.40;;
3589;SDS011;1809;48.470;9.226;2023-04-24T04:04:02;4.13;;;2.70;;
3589;SDS011;1809;48.470;9.226;2023-04-24T04:06:28;4.27;;;1.60;;
3589;SDS011;1809;48.470;9.226;2023-04-24T04:08:53;1.70;;;1.50;;
3589;SDS011;1809;48.470;9.226;2023-04-24T04:11:19;2.43;;;1.40;;
3589;SDS011;1809;48.470;9.226;2023-04-24T04:13:44;2.33;;;1.27;;
3589;SDS011;1809;48.470;9.226;2023-04-24T04:16:12;2.73;;;1.40;;
3589;SDS011;1809;48.470;9.226;2023-04-24T04:18:38;1.10;;;1.00;;
3589;SDS011;1809;48.470;9.226;2023-04-24T04:21:03;3.20;;;1.17;;
3589;SDS011;1809;48.470;9.226;2023-04-24T04:23:28;3.50;;;2.07;;
3589;SDS011;1809;48.470;9.226;2023-04-24T04:25:54;2.80;;;1.30;;
3589;SDS011;1809;48.470;9.226;2023-04-24T04:28:20;4.00;;;1.27;;
3589;SDS011;1809;48.470;9.226;2023-04-24T04:30:46;5.77;;;1.47;;
3589;SDS011;1809;48.470;9.226;2023-04-24T04:33:12;2.93;;;1.17;;
3589;SDS011;1809;48.470;9.226;2023-04-24T04:35:37;1.20;;;1.20;;
3589;SDS011;1809;48.470;9.226;2023-04-24T04:38:03;3.03;;;1.30;;
3589;SDS011;1809;48.470;9.226;2023-04-24T04:40:29;4.93;;;1.20;;
3589;SDS011;1809;48.470;9.226;2023-04-24T04:42:55;0.90;;;0.90;;
3589;SDS011;1809;48.470;9.226;2023-04-24T04:45:20;2.07;;;0.97;;
3589;SDS011;1809;48.470;9.226;2023-04-24T04:47:46;2.37;;;1.47;;
3589;SDS011;1809;48.470;9.226;2023-04-24T04:50:12;1.23;;;1.10;;
3589;SDS011;1809;48.470;9.226;2023-04-24T04:52:37;3.17;;;1.30;;
3589;SDS011;1809;48.470;9.226;2023-04-24T04:55:03;6.33;;;4.30;;
3589;SDS011;1809;48.470;9.226;2023-04-24T04:57:28;3.33;;;1.93;;
3589;SDS011;1809;48.470;9.226;2023-04-24T04:59:55;2.17;;;0.80;;
3589;SDS011;1809;48.470;9.226;2023-04-24T05:02:20;1.30;;;1.30;;
3589;SDS011;1809;48.470;9.226;2023-04-24T05:04:45;1.23;;;1.10;;
3589;SDS011;1809;48.470;9.226;2023-04-24T05:07:11;1.70;;;1.60;;
3589;SDS011;1809;48.470;9.226;2023-04-24T05:09:36;4.00;;;1.43;;
3589;SDS011;1809;48.470;9.226;2023-04-24T05:12:02;2.70;;;1.63;;
3589;SDS011;1809;48.470;9.226;2023-04-24T05:14:27;2.33;;;1.83;;
3589;SDS011;1809;48.470;9.226;2023-04-24T05:16:53;1.93;;;1.83;;
3589;SDS011;1809;48.470;9.226;2023-04-24T05:19:18;1.50;;;1.40;;
3589;SDS011;1809;48.470;9.226;2023-04-24T05:21:43;1.73;;;1.63;;
3589;SDS011;1809;48.470;9.226;2023-04-24T05:24:09;2.97;;;1.87;;
3589;SDS011;1809;48.470;9.226;2023-04-24T05:26:34;5.43;;;2.97;;
3589;SDS011;1809;48.470;9.226;2023-04-24T05:29:00;3.67;;;2.57;;
3589;SDS011;1809;48.470;9.226;2023-04-24T05:31:26;4.93;;;4.43;;
3589;SDS011;1809;48.470;9.226;2023-04-24T05:33:51;4.00;;;3.10;;
3589;SDS011;1809;48.470;9.226;2023-04-24T05:36:17;12.17;;;6.90;;
3589;SDS011;1809;48.470;9.226;2023-04-24T05:38:42;2.60;;;2.40;;
3589;SDS011;1809;48.470;9.226;2023-04-24T05:41:07;2.30;;;2.20;;
3589;SDS011;1809;48.470;9.226;2023-04-24T05:43:33;2.50;;;2.30;;
3589;SDS011;1809;48.470;9.226;2023-04-24T05:45:58;2.37;;;2.17;;
3589;SDS011;1809;48.470;9.226;2023-04-24T05:48:23;6.10;;;1.90;;
3589;SDS011;1809;48.470;9.226;2023-04-24T05:50:49;2.90;;;2.40;;
3589;SDS011;1809;48.470;9.226;2023-04-24T05:53:14;4.00;;;2.80;;
3589;SDS011;1809;48.470;9.226;2023-04-24T05:55:40;2.37;;;2.17;;
3589;SDS011;1809;48.470;9.226;2023-04-24T05:58:05;2.57;;;2.37;;
3589;SDS011;1809;48.470;9.226;2023-04-24T06:00:31;3.10;;;2.80;;
3589;SDS011;1809;48.470;9.226;2023-04-24T06:02:56;3.50;;;3.30;;
3589;SDS011;1809;48.470;9.226;2023-04-24T06:05:22;3.00;;;2.80;;
3589;SDS011;1809;48.470;9.226;2023-04-24T06:07:47;2.73;;;2.53;;
3589;SDS011;1809;48.470;9.226;2023-04-24T06:10:13;3.40;;;2.90;;
3589;SDS011;1809;48.470;9.226;2023-04-24T06:12:39;4.03;;;2.90;;
3589;SDS011;1809;48.470;9.226;2023-04-24T06:15:04;3.47;;;2.87;;
3589;SDS011;1809;48.470;9.226;2023-04-24T06:17:30;2.50;;;2.40;;
3589;SDS011;1809;48.470;9.226;2023-04-24T06:19:55;3.83;;;2.73;;
3589;SDS011;1809;48.470;9.226;2023-04-24T06:22:21;2.17;;;2.07;;
3589;SDS011;1809;48.470;9.226;2023-04-24T06:24:46;1.77;;;1.67;;
3589;SDS011;1809;48.470;9.226;2023-04-24T06:27:13;1.43;;;1.43;;
3589;SDS011;1809;48.470;9.226;2023-04-24T06:29:38;1.80;;;1.70;;
3589;SDS011;1809;48.470;9.226;2023-04-24T06:32:03;1.33;;;1.30;;
3589;SDS011;1809;48.470;9.226;2023-04-24T06:34:29;1.23;;;1.13;;
3589;SDS011;1809;48.470;9.226;2023-04-24T06:36:55;1.90;;;1.80;;
3589;SDS011;1809;48.470;9.226;2023-04-24T06:39:21;3.30;;;1.50;;
3589;SDS011;1809;48.470;9.226;2023-04-24T06:41:47;1.87;;;1.40;;
3589;SDS011;1809;48.470;9.226;2023-04-24T06:44:12;1.97;;;1.67;;
3589;SDS011;1809;48.470;9.226;2023-04-24T06:46:39;1.60;;;1.50;;
3589;SDS011;1809;48.470;9.226;2023-04-24T06:49:05;1.53;;;1.43;;
3589;SDS011;1809;48.470;9.226;2023-04-24T06:51:30;1.80;;;1.70;;
3589;SDS011;1809;48.470;9.226;2023-04-24T06:53:57;2.00;;;1.40;;
3589;SDS011;1809;48.470;9.226;2023-04-24T06:56:23;2.03;;;1.50;;
3589;SDS011;1809;48.470;9.226;2023-04-24T06:58:50;1.77;;;1.67;;
3589;SDS011;1809;48.470;9.226;2023-04-24T07:01:16;2.10;;;2.00;;
3589;SDS011;1809;48.470;9.226;2023-04-24T07:03:41;1.93;;;1.70;;
3589;SDS011;1809;48.470;9.226;2023-04-24T07:06:07;1.70;;;1.60;;
3589;SDS011;1809;48.470;9.226;2023-04-24T07:08:32;1.77;;;1.37;;
3589;SDS011;1809;48.470;9.226;2023-04-24T07:10:58;5.77;;;1.97;;
3589;SDS011;1809;48.470;9.226;2023-04-24T07:13:23;2.87;;;1.80;;
3589;SDS011;1809;48.470;9.226;2023-04-24T07:15:49;2.20;;;2.10;;
3589;SDS011;1809;48.470;9.226;2023-04-24T07:18:15;2.10;;;2.00;;
3589;SDS011;1809;48.470;9.226;2023-04-24T07:20:41;4.60;;;2.87;;
3589;SDS011;1809;48.470;9.226;2023-04-24T07:23:06;2.60;;;2.40;;
3589;SDS011;1809;48.470;9.226;2023-04-24T07:25:32;2.07;;;1.97;;
3589;SDS011;1809;48.470;9.226;2023-04-24T07:27:58;2.40;;;2.20;;
3589;SDS011;1809;48.470;9.226;2023-04-24T07:30:23;2.37;;;2.17;;
3589;SDS011;1809;48.470;9.226;2023-04-24T07:32:48;3.47;;;2.57;;
3589;SDS011;1809;48.470;9.226;2023-04-24T07:35:14;2.30;;;2.10;;
3589;SDS011;1809;48.470;9.226;2023-04-24T07:37:39;2.90;;;2.70;;
3589;SDS011;1809;48.470;9.226;2023-04-24T07:40:05;2.60;;;2.23;;
3589;SDS011;1809;48.470;9.226;2023-04-24T07:42:31;3.30;;;3.00;;
3589;SDS011;1809;48.470;9.226;2023-04-24T07:44:56;3.93;;;2.17;;
3589;SDS011;1809;48.470;9.226;2023-04-24T07:47:22;2.40;;;2.20;;
3589;SDS011;1809;48.470;9.226;2023-04-24T07:49:47;2.40;;;2.20;;
3589;SDS011;1809;48.470;9.226;2023-04-24T07:52:12;3.03;;;1.47;;
3589;SDS011;1809;48.470;9.226;2023-04-24T07:54:38;2.03;;;1.93;;
3589;SDS011;1809;48.470;9.226;2023-04-24T07:57:03;2.17;;;1.57;;
3589;SDS011;1809;48.470;9.226;2023-04-24T07:59:29;2.10;;;1.30;;
3589;SDS011;1809;48.470;9.226;2023-04-24T08:01:54;1.47;;;1.37;;
3589;SDS011;1809;48.470;9.226;2023-04-24T08:04:20;1.27;;;1.17;;
3589;SDS011;1809;48.470;9.226;2023-04-24T08:06:47;1.30;;;1.30;;
3589;SDS011;1809;48.470;9.226;2023-04-24T08:09:12;1.33;;;1.00;;
3589;SDS011;1809;48.470;9.226;2023-04-24T08:11:38;2.27;;;1.27;;
3589;SDS011;1809;48.470;9.226;2023-04-24T08:14:03;3.30;;;1.57;;
3589;SDS011;1809;48.470;9.226;2023-04-24T08:16:28;1.50;;;1.40;;
3589;SDS011;1809;48.470;9.226;2023-04-24T08:18:54;1.53;;;1.40;;
3589;SDS011;1809;48.470;9.226;2023-04-24T08:21:19;5.73;;;1.53;;
3589;SDS011;1809;48.470;9.226;2023-04-24T08:23:45;1.30;;;1.20;;
3589;SDS011;1809;48.470;9.226;2023-04-24T08:26:11;1.73;;;1.20;;
3589;SDS011;1809;48.470;9.226;2023-04-24T08:28:37;2.43;;;1.20;;
3589;SDS011;1809;48.470;9.226;2023-04-24T08:31:02;1.43;;;1.37;;
3589;SDS011;1809;48.470;9.226;2023-04-24T08:33:28;1.67;;;1.57;;
3589;SDS011;1809;48.470;9.226;2023-04-24T08:35:59;2.87;;;1.70;;
3589;SDS011;1809;48.470;9.226;2023-04-24T08:38:28;1.37;;;1.27;;
3589;SDS011;1809;48.470;9.226;2023-04-24T08:40:54;1.73;;;1.47;;
3589;SDS011;1809;48.470;9.226;2023-04-24T08:43:21;3.03;;;1.70;;
3589;SDS011;1809;48.470;9.226;2023-04-24T08:45:48;3.03;;;1.70;;
3589;SDS011;1809;48.470;9.226;2023-04-24T08:48:13;2.00;;;1.90;;
3589;SDS011;1809;48.470;9.226;2023-04-24T08:50:40;3.83;;;1.90;;
3589;SDS011;1809;48.470;9.226;2023-04-24T08:53:07;1.70;;;1.60;;
3589;SDS011;1809;48.470;9.226;2023-04-24T08:55:33;1.60;;;1.43;;
3589;SDS011;1809;48.470;9.226;2023-04-24T08:57:59;1.67;;;1.20;;
3589;SDS011;1809;48.470;9.226;2023-04-24T09:00:26;3.30;;;2.40;;
3589;SDS011;1809;48.470;9.226;2023-04-24T09:02:53;5.03;;;2.70;;
3589;SDS011;1809;48.470;9.226;2023-04-24T09:05:19;1.43;;;1.33;;
3589;SDS011;1809;48.470;9.226;2023-04-24T09:07:48;2.97;;;1.30;;
3589;SDS011;1809;48.470;9.226;2023-04-24T09:10:18;1.67;;;1.10;;
3589;SDS011;1809;48.470;9.226;2023-04-24T09:12:44;3.40;;;1.30;;
3589;SDS011;1809;48.470;9.226;2023-04-24T09:15:10;2.10;;;1.20;;
3589;SDS011;1809;48.470;9.226;2023-04-24T09:17:36;1.30;;;1.20;;
3589;SDS011;1809;48.470;9.226;2023-04-24T09:20:02;1.40;;;1.30;;
3589;SDS011;1809;48.470;9.226;2023-04-24T09:22:30;3.30;;;1.23;;
3589;SDS011;1809;48.470;9.226;2023-04-24T09:25:02;1.53;;;1.43;;
3589;SDS011;1809;48.470;9.226;2023-04-24T09:27:30;4.40;;;2.40;;
3589;SDS011;1809;48.470;9.226;2023-04-24T09:29:56;1.73;;;1.63;;
3589;SDS011;1809;48.470;9.226;2023-04-24T09:32:22;1.40;;;1.30;;
3589;SDS011;1809;48.470;9.226;2023-04-24T09:35:04;1.90;;;1.20;;
3589;SDS011;1809;48.470;9.226;2023-04-24T09:37:37;2.40;;;1.30;;
3589;SDS011;1809;48.470;9.226;2023-04-24T09:40:13;1.60;;;1.50;;
3589;SDS011;1809;48.470;9.226;2023-04-24T09:42:52;2.07;;;1.87;;
3589;SDS011;1809;48.470;9.226;2023-04-24T09:45:35;1.67;;;1.57;;
3589;SDS011;1809;48.470;9.226;2023-04-24T09:48:02;4.33;;;1.23;;
3589;SDS011;1809;48.470;9.226;2023-04-24T09:50:29;1.20;;;1.20;;
3589;SDS011;1809;48.470;9.226;2023-04-24T09:52:57;1.43;;;1.37;;
3589;SDS011;1809;48.470;9.226;2023-04-24T09:55:29;1.10;;;1.00;;
3589;SDS011;1809;48.470;9.226;2023-04-24T09:57:56;3.00;;;1.17;;
3589;SDS011;1809;48.470;9.226;2023-04-24T10:00:23;2.70;;;1.43;;
3589;SDS011;1809;48.470;9.226;2023-04-24T10:03:01;1.47;;;1.40;;
3589;SDS011;1809;48.470;9.226;2023-04-24T10:05:37;3.63;;;1.10;;
3589;SDS011;1809;48.470;9.226;2023-04-24T10:10:37;3.83;;;1.43;;
3589;SDS011;1809;48.470;9.226;2023-04-24T10:13:04;1.30;;;1.20;;
3589;SDS011;1809;48.470;9.226;2023-04-24T10:15:29;1.50;;;1.40;;
3589;SDS011;1809;48.470;9.226;2023-04-24T10:17:55;1.30;;;1.20;;
3589;SDS011;1809;48.470;9.226;2023-04-24T10:20:24;2.20;;;1.40;;
3589;SDS011;1809;48.470;9.226;2023-04-24T10:22:52;1.50;;;1.40;;
3589;SDS011;1809;48.470;9.226;2023-04-24T10:25:19;1.93;;;1.50;;
3589;SDS011;1809;48.470;9.226;2023-04-24T10:27:45;1.40;;;1.30;;
3589;SDS011;1809;48.470;9.226;2023-04-24T10:30:12;2.10;;;1.93;;
3589;SDS011;1809;48.470;9.226;2023-04-24T10:32:38;4.60;;;1.80;;
3589;SDS011;1809;48.470;9.226;2023-04-24T10:35:04;6.00;;;1.60;;
3589;SDS011;1809;48.470;9.226;2023-04-24T10:37:35;3.10;;;1.40;;
3589;SDS011;1809;48.470;9.226;2023-04-24T10:40:03;1.20;;;1.20;;
3589;SDS011;1809;48.470;9.226;2023-04-24T10:42:29;3.87;;;1.10;;
3589;SDS011;1809;48.470;9.226;2023-04-24T10:44:54;1.53;;;1.10;;
3589;SDS011;1809;48.470;9.226;2023-04-24T10:47:20;1.10;;;1.10;;
3589;SDS011;1809;48.470;9.226;2023-04-24T10:49:46;6.00;;;1.30;;
3589;SDS011;1809;48.470;9.226;2023-04-24T10:52:15;1.00;;;1.00;;
3589;SDS011;1809;48.470;9.226;2023-04-24T10:54:42;0.70;;;0.70;;
3589;SDS011;1809;48.470;9.226;2023-04-24T10:59:45;1.10;;;1.00;;
3589;SDS011;1809;48.470;9.226;2023-04-24T11:02:14;0.90;;;0.90;;
3589;SDS011;1809;48.470;9.226;2023-04-24T11:04:40;1.10;;;1.10;;
3589;SDS011;1809;48.470;9.226;2023-04-24T11:07:08;0.90;;;0.90;;
3589;SDS011;1809;48.470;9.226;2023-04-24T11:09:34;2.60;;;0.83;;
3589;SDS011;1809;48.470;9.226;2023-04-24T11:12:05;1.10;;;0.90;;
3589;SDS011;1809;48.470;9.226;2023-04-24T11:17:33;0.73;;;0.70;;
3589;SDS011;1809;48.470;9.226;2023-04-24T11:22:41;1.40;;;1.10;;
3589;SDS011;1809;48.470;9.226;2023-04-24T11:25:06;2.50;;;1.30;;
3589;SDS011;1809;48.470;9.226;2023-04-24T11:27:40;1.57;;;0.90;;
3589;SDS011;1809;48.470;9.226;2023-04-24T11:30:07;1.03;;;1.03;;
3589;SDS011;1809;48.470;9.226;2023-04-24T11:37:33;0.87;;;0.87;;
3589;SDS011;1809;48.470;9.226;2023-04-24T11:40:03;1.20;;;0.90;;
3589;SDS011;1809;48.470;9.226;2023-04-24T11:45:08;3.40;;;1.00;;
3589;SDS011;1809;48.470;9.226;2023-04-24T11:47:37;1.07;;;1.07;;
3589;SDS011;1809;48.470;9.226;2023-04-24T11:50:04;2.97;;;1.30;;
3589;SDS011;1809;48.470;9.226;2023-04-24T11:52:31;2.30;;;0.90;;
3589;SDS011;1809;48.470;9.226;2023-04-24T11:54:59;1.10;;;1.10;;
3589;SDS011;1809;48.470;9.226;2023-04-24T11:57:25;0.80;;;0.80;;
3589;SDS011;1809;48.470;9.226;2023-04-24T11:59:53;3.10;;;1.00;;
3589;SDS011;1809;48.470;9.226;2023-04-24T12:02:19;1.30;;;1.30;;
3589;SDS011;1809;48.470;9.226;2023-04-24T12:04:48;3.43;;;0.90;;
3589;SDS011;1809;48.470;9.226;2023-04-24T12:07:14;1.07;;;1.07;;
3589;SDS011;1809;48.470;9.226;2023-04-24T12:09:41;1.20;;;0.80;;
3589;SDS011;1809;48.470;9.226;2023-04-24T12:12:07;1.37;;;0.80;;
3589;SDS011;1809;48.470;9.226;2023-04-24T12:14:33;0.80;;;0.80;;
3589;SDS011;1809;48.470;9.226;2023-04-24T12:17:06;4.37;;;1.20;;
3589;SDS011;1809;48.470;9.226;2023-04-24T12:19:31;3.13;;;0.87;;
3589;SDS011;1809;48.470;9.226;2023-04-24T12:22:00;1.17;;;0.80;;
3589;SDS011;1809;48.470;9.226;2023-04-24T12:24:27;0.80;;;0.80;;
3589;SDS011;1809;48.470;9.226;2023-04-24T12:26:52;2.20;;;1.07;;
3589;SDS011;1809;48.470;9.226;2023-04-24T12:29:21;0.80;;;0.80;;
3589;SDS011;1809;48.470;9.226;2023-04-24T12:31:48;2.20;;;0.90;;
3589;SDS011;1809;48.470;9.226;2023-04-24T12:34:22;0.70;;;0.70;;
3589;SDS011;1809;48.470;9.226;2023-04-24T12:36:50;0.80;;;0.80;;
3589;SDS011;1809;48.470;9.226;2023-04-24T12:39:19;4.23;;;1.80;;
3589;SDS011;1809;48.470;9.226;2023-04-24T12:41:54;0.80;;;0.80;;
3589;SDS011;1809;48.470;9.226;2023-04-24T12:44:31;2.20;;;0.80;;
3589;SDS011;1809;48.470;9.226;2023-04-24T12:47:00;1.60;;;1.03;;
3589;SDS011;1809;48.470;9.226;2023-04-24T12:49:25;8.37;;;1.13;;
3589;SDS011;1809;48.470;9.226;2023-04-24T12:51:51;0.80;;;0.80;;
3589;SDS011;1809;48.470;9.226;2023-04-24T12:54:16;1.50;;;0.90;;
3589;SDS011;1809;48.470;9.226;2023-04-24T12:56:42;2.07;;;1.00;;
3589;SDS011;1809;48.470;9.226;2023-04-24T12:59:07;5.80;;;1.20;;
3589;SDS011;1809;48.470;9.226;2023-04-24T13:01:32;1.00;;;1.00;;
3589;SDS011;1809;48.470;9.226;2023-04-24T13:03:58;1.53;;;1.00;;
3589;SDS011;1809;48.470;9.226;2023-04-24T13:06:23;1.30;;;1.30;;
3589;SDS011;1809;48.470;9.226;2023-04-24T13:08:48;3.43;;;1.63;;
3589;SDS011;1809;48.470;9.226;2023-04-24T13:11:14;1.20;;;1.10;;
3589;SDS011;1809;48.470;9.226;2023-04-24T13:13:39;1.00;;;1.00;;
3589;SDS011;1809;48.470;9.226;2023-04-24T13:16:05;2.03;;;1.20;;
3589;SDS011;1809;48.470;9.226;2023-04-24T13:18:30;1.90;;;1.00;;
3589;SDS011;1809;48.470;9.226;2023-04-24T13:20:55;5.03;;;1.37;;
3589;SDS011;1809;48.470;9.226;2023-04-24T13:23:21;1.40;;;1.30;;
3589;SDS011;1809;48.470;9.226;2023-04-24T13:25:47;2.00;;;1.20;;
3589;SDS011;1809;48.470;9.226;2023-04-24T13:28:13;1.20;;;1.20;;
3589;SDS011;1809;48.470;9.226;2023-04-24T13:30:38;2.63;;;1.67;;
3589;SDS011;1809;48.470;9.226;2023-04-24T13:33:04;1.80;;;1.70;;
3589;SDS011;1809;48.470;9.226;2023-04-24T13:35:29;12.10;;;1.63;;
3589;SDS011;1809;48.470;9.226;2023-04-24T13:37:55;2.67;;;1.30;;
3589;SDS011;1809;48.470;9.226;2023-04-24T13:40:22;1.63;;;1.53;;
3589;SDS011;1809;48.470;9.226;2023-04-24T13:42:47;1.50;;;1.40;;
3589;SDS011;1809;48.470;9.226;2023-04-24T13:45:12;2.77;;;1.57;;
3589;SDS011;1809;48.470;9.226;2023-04-24T13:47:38;2.17;;;1.57;;
3589;SDS011;1809;48.470;9.226;2023-04-24T13:50:06;1.37;;;1.27;;
3589;SDS011;1809;48.470;9.226;2023-04-24T13:52:34;1.30;;;1.30;;
3589;SDS011;1809;48.470;9.226;2023-04-24T13:55:00;2.03;;;1.67;;
3589;SDS011;1809;48.470;9.226;2023-04-24T13:57:25;2.80;;;1.30;;
3589;SDS011;1809;48.470;9.226;2023-04-24T13:59:51;5.07;;;1.30;;
3589;SDS011;1809;48.470;9.226;2023-04-24T14:02:17;1.20;;;1.10;;
3589;SDS011;1809;48.470;9.226;2023-04-24T14:04:42;1.57;;;1.37;;
3589;SDS011;1809;48.470;9.226;2023-04-24T14:07:08;1.30;;;1.13;;
3589;SDS011;1809;48.470;9.226;2023-04-24T14:09:33;2.40;;;1.40;;
3589;SDS011;1809;48.470;9.226;2023-04-24T14:11:59;1.93;;;1.10;;
3589;SDS011;1809;48.470;9.226;2023-04-24T14:14:26;2.53;;;1.40;;
3589;SDS011;1809;48.470;9.226;2023-04-24T14:16:51;1.90;;;1.30;;
3589;SDS011;1809;48.470;9.226;2023-04-24T14:19:17;1.20;;;1.20;;
3589;SDS011;1809;48.470;9.226;2023-04-24T14:21:42;1.10;;;1.10;;
3589;SDS011;1809;48.470;9.226;2023-04-24T14:24:08;1.33;;;1.20;;
3589;SDS011;1809;48.470;9.226;2023-04-24T14:26:33;1.30;;;1.20;;
3589;SDS011;1809;48.470;9.226;2023-04-24T14:28:58;1.33;;;1.23;;
3589;SDS011;1809;48.470;9.226;2023-04-24T14:31:24;5.80;;;1.63;;
3589;SDS011;1809;48.470;9.226;2023-04-24T14:33:49;2.00;;;1.23;;
3589;SDS011;1809;48.470;9.226;2023-04-24T14:36:14;2.80;;;1.77;;
3589;SDS011;1809;48.470;9.226;2023-04-24T14:38:40;1.60;;;1.50;;
3589;SDS011;1809;48.470;9.226;2023-04-24T14:41:05;3.93;;;1.60;;
3589;SDS011;1809;48.470;9.226;2023-04-24T14:43:34;1.30;;;1.30;;
3589;SDS011;1809;48.470;9.226;2023-04-24T14:46:00;2.33;;;1.67;;
3589;SDS011;1809;48.470;9.226;2023-04-24T14:48:25;2.60;;;1.87;;
3589;SDS011;1809;48.470;9.226;2023-04-24T14:50:51;4.83;;;1.43;;
3589;SDS011;1809;48.470;9.226;2023-04-24T14:53:16;1.33;;;1.23;;
3589;SDS011;1809;48.470;9.226;2023-04-24T14:55:41;1.53;;;1.43;;
3589;SDS011;1809;48.470;9.226;2023-04-24T14:58:07;1.40;;;1.30;;
3589;SDS011;1809;48.470;9.226;2023-04-24T15:00:32;5.13;;;2.30;;
3589;SDS011;1809;48.470;9.226;2023-04-24T15:02:58;2.10;;;1.40;;
3589;SDS011;1809;48.470;9.226;2023-04-24T15:05:35;1.73;;;1.63;;
3589;SDS011;1809;48.470;9.226;2023-04-24T15:08:01;1.30;;;1.20;;
3589;SDS011;1809;48.470;9.226;2023-04-24T15:10:26;1.30;;;1.30;;
3589;SDS011;1809;48.470;9.226;2023-04-24T15:12:52;1.40;;;1.40;;
3589;SDS011;1809;48.470;9.226;2023-04-24T15:15:17;3.00;;;1.30;;
3589;SDS011;1809;48.470;9.226;2023-04-24T15:17:43;1.90;;;1.80;;
3589;SDS011;1809;48.470;9.226;2023-04-24T15:20:08;1.50;;;1.40;;
3589;SDS011;1809;48.470;9.226;2023-04-24T15:22:34;1.63;;;1.53;;
3589;SDS011;1809;48.470;9.226;2023-04-24T15:25:00;3.00;;;1.60;;
3589;SDS011;1809;48.470;9.226;2023-04-24T15:27:26;1.50;;;1.40;;